Etusivu
METAR-TAF:

METAR-TAF

Lentoasemat :

Koror, Babelthuap Island, Palau

Leveyspiiri: 07-22N, Pituuspiiri: 134-32E, korkeus merenpinnasta: 54 m

Tämänhetkinen sää

Tämä raportti tehtiin 13 minuuttia sitten, kello 23.50 UTC
tyyntä
Lämpötila 28°C
Kosteus 79%
Ilmanpaine 1009 hPa
Näkyvyys: 24.1 km
Muutamia pilviä 900 ft:n korkeudessa
Hajanaisia pilviä 1600 ft:n korkeudessa
Hajanaisia pilviä 12000 ft:n korkeudessa
Hajonneita pilviä 30000 ft:n korkeudessa

METAR: PTRO 232350Z 00000KT 15SM FEW009 SCT016 SCT120 BKN300 28/24 A2981

Aika: 09:03 (00:03 UTC)

Sääennuste

Tämä raportti tehtiin 34 minuuttia sitten, kello 23.29 UTC
Ennuste voimassa 24. päivästä klo 00 UTC - 24. päivään klo 24 UTC
Tuuli 6 kn eri suunnista
Näkyvyys: 10 km
Hajanaisia pilviä 1600 ft:n korkeudessa
Hajonneita pilviä 12000 ft:n korkeudessa
sadekuuroja näköpiirissä

TAF: PTRO 232329Z 2400/2424 VRB06KT P6SM VCSH SCT016 BKN120

Säähavainnot ja -ennusteet yli 4000 lentoasemalta (METAR- ja TAF-raportit).

Käytössä olevat sääasemat on merkitty karttaan keltaisilla ja punaisilla pisteillä.

Aseta hiiri pisteen päälle nähdäksesi sääaseman nimen.

Klikkaa sitten nähdäksesi säähavainnot ja -ennusteet.

Kartan vaihtaminen: klikkaa mustalla rastilla varustettuja vihreitä pisteitä, niin voit zoomata sisään; viivalla varustettua vihreää pistettä, niin voit zoomata ulos tai vihreitä nuolia, niin pääset viereisille kartoille.


METAR-TAF: